sensor_id;sensor_type;location;lat;lon;timestamp;P1;durP1;ratioP1;P2;durP2;ratioP2
57778;SDS011;43608;49.486;9.640;2023-05-10T00:00:05;1.10;;;1.10;;
57778;SDS011;43608;49.486;9.640;2023-05-10T00:00:35;1.00;;;1.00;;
57778;SDS011;43608;49.486;9.640;2023-05-10T00:01:06;1.00;;;1.00;;
57778;SDS011;43608;49.486;9.640;2023-05-10T00:01:36;1.10;;;1.10;;
57778;SDS011;43608;49.486;9.640;2023-05-10T00:02:07;1.00;;;1.00;;
57778;SDS011;43608;49.486;9.640;2023-05-10T00:02:37;1.00;;;1.00;;
57778;SDS011;43608;49.486;9.640;2023-05-10T00:03:08;1.15;;;1.05;;
57778;SDS011;43608;49.486;9.640;2023-05-10T00:03:38;0.90;;;0.90;;
57778;SDS011;43608;49.486;9.640;2023-05-10T00:04:10;1.08;;;1.08;;
57778;SDS011;43608;49.486;9.640;2023-05-10T00:04:40;1.00;;;1.00;;
57778;SDS011;43608;49.486;9.640;2023-05-10T00:05:10;1.00;;;1.00;;
57778;SDS011;43608;49.486;9.640;2023-05-10T00:05:41;1.00;;;1.00;;
57778;SDS011;43608;49.486;9.640;2023-05-10T00:06:11;1.10;;;1.10;;
57778;SDS011;43608;49.486;9.640;2023-05-10T00:06:42;1.17;;;1.17;;
57778;SDS011;43608;49.486;9.640;2023-05-10T00:07:12;1.20;;;1.20;;
57778;SDS011;43608;49.486;9.640;2023-05-10T00:07:42;1.55;;;1.05;;
57778;SDS011;43608;49.486;9.640;2023-05-10T00:08:16;0.90;;;0.90;;
57778;SDS011;43608;49.486;9.640;2023-05-10T00:08:46;1.10;;;1.10;;
57778;SDS011;43608;49.486;9.640;2023-05-10T00:09:16;1.30;;;1.20;;
57778;SDS011;43608;49.486;9.640;2023-05-10T00:09:46;1.00;;;1.00;;
57778;SDS011;43608;49.486;9.640;2023-05-10T00:10:17;1.10;;;1.10;;
57778;SDS011;43608;49.486;9.640;2023-05-10T00:10:47;1.00;;;1.00;;
57778;SDS011;43608;49.486;9.640;2023-05-10T00:11:18;1.10;;;1.10;;
57778;SDS011;43608;49.486;9.640;2023-05-10T00:11:48;0.77;;;0.77;;
57778;SDS011;43608;49.486;9.640;2023-05-10T00:12:19;1.20;;;1.20;;
57778;SDS011;43608;49.486;9.640;2023-05-10T00:12:49;1.05;;;1.05;;
57778;SDS011;43608;49.486;9.640;2023-05-10T00:13:22;1.00;;;1.00;;
57778;SDS011;43608;49.486;9.640;2023-05-10T00:13:52;1.08;;;1.08;;
57778;SDS011;43608;49.486;9.640;2023-05-10T00:14:23;1.00;;;1.00;;
57778;SDS011;43608;49.486;9.640;2023-05-10T00:14:53;0.93;;;0.93;;
57778;SDS011;43608;49.486;9.640;2023-05-10T00:15:26;0.85;;;0.85;;
57778;SDS011;43608;49.486;9.640;2023-05-10T00:15:56;1.02;;;1.02;;
57778;SDS011;43608;49.486;9.640;2023-05-10T00:16:27;0.90;;;0.90;;
57778;SDS011;43608;49.486;9.640;2023-05-10T00:16:58;1.02;;;1.02;;
57778;SDS011;43608;49.486;9.640;2023-05-10T00:17:28;0.90;;;0.90;;
57778;SDS011;43608;49.486;9.640;2023-05-10T00:17:58;0.93;;;0.90;;
57778;SDS011;43608;49.486;9.640;2023-05-10T00:18:29;0.80;;;0.80;;
57778;SDS011;43608;49.486;9.640;2023-05-10T00:18:59;0.90;;;0.90;;
57778;SDS011;43608;49.486;9.640;2023-05-10T00:19:29;1.00;;;1.00;;
57778;SDS011;43608;49.486;9.640;2023-05-10T00:20:00;0.90;;;0.90;;
57778;SDS011;43608;49.486;9.640;2023-05-10T00:20:30;1.40;;;1.30;;
57778;SDS011;43608;49.486;9.640;2023-05-10T00:21:01;0.98;;;0.98;;
57778;SDS011;43608;49.486;9.640;2023-05-10T00:21:31;1.00;;;1.00;;
57778;SDS011;43608;49.486;9.640;2023-05-10T00:22:03;1.10;;;1.10;;
57778;SDS011;43608;49.486;9.640;2023-05-10T00:22:33;0.93;;;0.93;;
57778;SDS011;43608;49.486;9.640;2023-05-10T00:23:04;1.00;;;1.00;;
57778;SDS011;43608;49.486;9.640;2023-05-10T00:23:34;1.20;;;1.20;;
57778;SDS011;43608;49.486;9.640;2023-05-10T00:24:05;1.10;;;1.10;;
57778;SDS011;43608;49.486;9.640;2023-05-10T00:24:35;1.10;;;1.10;;
57778;SDS011;43608;49.486;9.640;2023-05-10T00:25:06;1.10;;;1.10;;
57778;SDS011;43608;49.486;9.640;2023-05-10T00:25:37;1.10;;;1.10;;
57778;SDS011;43608;49.486;9.640;2023-05-10T00:26:07;1.00;;;1.00;;
57778;SDS011;43608;49.486;9.640;2023-05-10T00:26:38;1.35;;;1.25;;
57778;SDS011;43608;49.486;9.640;2023-05-10T00:27:12;1.00;;;1.00;;
57778;SDS011;43608;49.486;9.640;2023-05-10T00:27:42;1.58;;;1.23;;
57778;SDS011;43608;49.486;9.640;2023-05-10T00:28:13;1.13;;;1.13;;
57778;SDS011;43608;49.486;9.640;2023-05-10T00:28:43;1.05;;;1.05;;
57778;SDS011;43608;49.486;9.640;2023-05-10T00:29:13;0.98;;;0.98;;
57778;SDS011;43608;49.486;9.640;2023-05-10T00:29:44;1.20;;;1.10;;
57778;SDS011;43608;49.486;9.640;2023-05-10T00:30:14;1.00;;;1.00;;
57778;SDS011;43608;49.486;9.640;2023-05-10T00:30:45;1.10;;;1.10;;
57778;SDS011;43608;49.486;9.640;2023-05-10T00:31:15;1.20;;;1.20;;
57778;SDS011;43608;49.486;9.640;2023-05-10T00:31:45;1.10;;;1.10;;
57778;SDS011;43608;49.486;9.640;2023-05-10T00:32:16;1.13;;;1.13;;
57778;SDS011;43608;49.486;9.640;2023-05-10T00:32:46;1.10;;;1.10;;
57778;SDS011;43608;49.486;9.640;2023-05-10T00:33:19;0.98;;;0.98;;
57778;SDS011;43608;49.486;9.640;2023-05-10T00:33:49;1.25;;;1.23;;
57778;SDS011;43608;49.486;9.640;2023-05-10T00:34:20;1.00;;;1.00;;
57778;SDS011;43608;49.486;9.640;2023-05-10T00:34:50;1.33;;;1.13;;
57778;SDS011;43608;49.486;9.640;2023-05-10T00:35:21;1.15;;;1.15;;
57778;SDS011;43608;49.486;9.640;2023-05-10T00:35:51;1.25;;;1.20;;
57778;SDS011;43608;49.486;9.640;2023-05-10T00:36:22;0.88;;;0.88;;
57778;SDS011;43608;49.486;9.640;2023-05-10T00:36:53;1.23;;;1.23;;
57778;SDS011;43608;49.486;9.640;2023-05-10T00:37:23;0.95;;;0.95;;
57778;SDS011;43608;49.486;9.640;2023-05-10T00:37:53;1.10;;;1.10;;
57778;SDS011;43608;49.486;9.640;2023-05-10T00:38:24;1.00;;;1.00;;
57778;SDS011;43608;49.486;9.640;2023-05-10T00:38:54;1.20;;;1.10;;
57778;SDS011;43608;49.486;9.640;2023-05-10T00:39:24;1.38;;;1.23;;
57778;SDS011;43608;49.486;9.640;2023-05-10T00:39:58;1.10;;;1.10;;
57778;SDS011;43608;49.486;9.640;2023-05-10T00:40:29;1.10;;;1.10;;
57778;SDS011;43608;49.486;9.640;2023-05-10T00:41:00;1.75;;;1.08;;
57778;SDS011;43608;49.486;9.640;2023-05-10T00:41:30;1.10;;;1.10;;
57778;SDS011;43608;49.486;9.640;2023-05-10T00:42:02;1.17;;;1.10;;
57778;SDS011;43608;49.486;9.640;2023-05-10T00:42:34;1.15;;;1.10;;
57778;SDS011;43608;49.486;9.640;2023-05-10T00:43:04;0.95;;;0.95;;
57778;SDS011;43608;49.486;9.640;2023-05-10T00:43:35;1.00;;;1.00;;
57778;SDS011;43608;49.486;9.640;2023-05-10T00:44:05;1.13;;;1.02;;
57778;SDS011;43608;49.486;9.640;2023-05-10T00:44:36;1.08;;;1.08;;
57778;SDS011;43608;49.486;9.640;2023-05-10T00:45:06;1.40;;;1.10;;
57778;SDS011;43608;49.486;9.640;2023-05-10T00:45:37;0.88;;;0.88;;
57778;SDS011;43608;49.486;9.640;2023-05-10T00:46:09;1.00;;;1.00;;
57778;SDS011;43608;49.486;9.640;2023-05-10T00:46:41;1.30;;;1.20;;
57778;SDS011;43608;49.486;9.640;2023-05-10T00:47:11;1.02;;;1.02;;
57778;SDS011;43608;49.486;9.640;2023-05-10T00:47:42;1.30;;;1.20;;
57778;SDS011;43608;49.486;9.640;2023-05-10T00:48:12;0.88;;;0.88;;
57778;SDS011;43608;49.486;9.640;2023-05-10T00:48:43;1.55;;;1.05;;
57778;SDS011;43608;49.486;9.640;2023-05-10T00:49:15;0.98;;;0.98;;
57778;SDS011;43608;49.486;9.640;2023-05-10T00:49:46;0.90;;;0.90;;
57778;SDS011;43608;49.486;9.640;2023-05-10T00:50:17;0.90;;;0.90;;
57778;SDS011;43608;49.486;9.640;2023-05-10T00:50:47;1.00;;;1.00;;
57778;SDS011;43608;49.486;9.640;2023-05-10T00:51:18;0.88;;;0.88;;
57778;SDS011;43608;49.486;9.640;2023-05-10T00:51:48;1.48;;;1.05;;
57778;SDS011;43608;49.486;9.640;2023-05-10T00:52:20;0.85;;;0.85;;
57778;SDS011;43608;49.486;9.640;2023-05-10T00:52:50;0.88;;;0.88;;
57778;SDS011;43608;49.486;9.640;2023-05-10T00:53:21;0.90;;;0.90;;
57778;SDS011;43608;49.486;9.640;2023-05-10T00:53:51;0.95;;;0.95;;
57778;SDS011;43608;49.486;9.640;2023-05-10T00:54:22;0.80;;;0.80;;
57778;SDS011;43608;49.486;9.640;2023-05-10T00:54:52;1.00;;;1.00;;
57778;SDS011;43608;49.486;9.640;2023-05-10T00:55:24;0.88;;;0.88;;
57778;SDS011;43608;49.486;9.640;2023-05-10T00:55:55;1.00;;;1.00;;
57778;SDS011;43608;49.486;9.640;2023-05-10T00:56:26;1.05;;;1.05;;
57778;SDS011;43608;49.486;9.640;2023-05-10T00:56:58;1.17;;;1.10;;
57778;SDS011;43608;49.486;9.640;2023-05-10T00:57:28;0.80;;;0.80;;
57778;SDS011;43608;49.486;9.640;2023-05-10T00:57:59;1.00;;;0.80;;
57778;SDS011;43608;49.486;9.640;2023-05-10T00:58:29;1.10;;;1.10;;
57778;SDS011;43608;49.486;9.640;2023-05-10T00:59:03;0.80;;;0.80;;
57778;SDS011;43608;49.486;9.640;2023-05-10T00:59:33;1.00;;;1.00;;
57778;SDS011;43608;49.486;9.640;2023-05-10T01:00:04;0.82;;;0.82;;
57778;SDS011;43608;49.486;9.640;2023-05-10T01:00:35;0.93;;;0.93;;
57778;SDS011;43608;49.486;9.640;2023-05-10T01:01:07;0.80;;;0.80;;
57778;SDS011;43608;49.486;9.640;2023-05-10T01:01:39;0.80;;;0.80;;
57778;SDS011;43608;49.486;9.640;2023-05-10T01:02:09;0.90;;;0.90;;
57778;SDS011;43608;49.486;9.640;2023-05-10T01:02:41;1.00;;;1.00;;
57778;SDS011;43608;49.486;9.640;2023-05-10T01:03:11;0.85;;;0.85;;
57778;SDS011;43608;49.486;9.640;2023-05-10T01:03:42;0.98;;;0.90;;
57778;SDS011;43608;49.486;9.640;2023-05-10T01:04:13;0.70;;;0.70;;
57778;SDS011;43608;49.486;9.640;2023-05-10T01:04:44;1.00;;;1.00;;
57778;SDS011;43608;49.486;9.640;2023-05-10T01:05:17;0.82;;;0.82;;
57778;SDS011;43608;49.486;9.640;2023-05-10T01:05:48;0.90;;;0.90;;
57778;SDS011;43608;49.486;9.640;2023-05-10T01:06:19;0.77;;;0.77;;
57778;SDS011;43608;49.486;9.640;2023-05-10T01:06:50;1.00;;;1.00;;
57778;SDS011;43608;49.486;9.640;2023-05-10T01:07:23;0.70;;;0.70;;
57778;SDS011;43608;49.486;9.640;2023-05-10T01:07:53;0.90;;;0.90;;
57778;SDS011;43608;49.486;9.640;2023-05-10T01:08:26;0.90;;;0.90;;
57778;SDS011;43608;49.486;9.640;2023-05-10T01:08:58;0.70;;;0.70;;
57778;SDS011;43608;49.486;9.640;2023-05-10T01:09:28;0.80;;;0.80;;
57778;SDS011;43608;49.486;9.640;2023-05-10T01:09:59;0.70;;;0.70;;
57778;SDS011;43608;49.486;9.640;2023-05-10T01:10:30;0.93;;;0.93;;
57778;SDS011;43608;49.486;9.640;2023-05-10T01:11:01;0.65;;;0.65;;
57778;SDS011;43608;49.486;9.640;2023-05-10T01:11:33;0.82;;;0.82;;
57778;SDS011;43608;49.486;9.640;2023-05-10T01:12:05;0.90;;;0.90;;
57778;SDS011;43608;49.486;9.640;2023-05-10T01:12:38;0.95;;;0.95;;
57778;SDS011;43608;49.486;9.640;2023-05-10T01:13:10;1.00;;;1.00;;
57778;SDS011;43608;49.486;9.640;2023-05-10T01:13:46;0.80;;;0.80;;
57778;SDS011;43608;49.486;9.640;2023-05-10T01:14:20;0.93;;;0.93;;
57778;SDS011;43608;49.486;9.640;2023-05-10T01:14:51;1.08;;;0.98;;
57778;SDS011;43608;49.486;9.640;2023-05-10T01:15:22;0.98;;;0.90;;
57778;SDS011;43608;49.486;9.640;2023-05-10T01:15:53;1.05;;;1.05;;
57778;SDS011;43608;49.486;9.640;2023-05-10T01:16:27;0.90;;;0.90;;
57778;SDS011;43608;49.486;9.640;2023-05-10T01:16:59;1.67;;;0.95;;
57778;SDS011;43608;49.486;9.640;2023-05-10T01:17:30;1.10;;;1.00;;
57778;SDS011;43608;49.486;9.640;2023-05-10T01:18:01;1.10;;;0.73;;
57778;SDS011;43608;49.486;9.640;2023-05-10T01:18:33;0.95;;;0.95;;
57778;SDS011;43608;49.486;9.640;2023-05-10T01:19:26;0.80;;;0.80;;
57778;SDS011;43608;49.486;9.640;2023-05-10T01:19:58;0.65;;;0.65;;
57778;SDS011;43608;49.486;9.640;2023-05-10T01:20:31;0.75;;;0.65;;
57778;SDS011;43608;49.486;9.640;2023-05-10T01:23:10;0.77;;;0.77;;
57778;SDS011;43608;49.486;9.640;2023-05-10T01:27:17;0.88;;;0.88;;
57778;SDS011;43608;49.486;9.640;2023-05-10T01:30:51;0.90;;;0.90;;
57778;SDS011;43608;49.486;9.640;2023-05-10T01:32:51;0.85;;;0.85;;
57778;SDS011;43608;49.486;9.640;2023-05-10T01:34:35;1.00;;;1.00;;
57778;SDS011;43608;49.486;9.640;2023-05-10T01:36:32;1.00;;;1.00;;
57778;SDS011;43608;49.486;9.640;2023-05-10T01:37:18;0.82;;;0.82;;
57778;SDS011;43608;49.486;9.640;2023-05-10T01:37:56;0.80;;;0.80;;
57778;SDS011;43608;49.486;9.640;2023-05-10T01:38:41;0.85;;;0.85;;
57778;SDS011;43608;49.486;9.640;2023-05-10T01:39:20;0.90;;;0.90;;
57778;SDS011;43608;49.486;9.640;2023-05-10T01:40:08;1.23;;;1.10;;
57778;SDS011;43608;49.486;9.640;2023-05-10T01:42:29;0.82;;;0.82;;
57778;SDS011;43608;49.486;9.640;2023-05-10T01:43:08;0.90;;;0.90;;
57778;SDS011;43608;49.486;9.640;2023-05-10T01:43:57;0.70;;;0.70;;
57778;SDS011;43608;49.486;9.640;2023-05-10T01:44:55;0.70;;;0.70;;
57778;SDS011;43608;49.486;9.640;2023-05-10T01:45:41;0.82;;;0.82;;
57778;SDS011;43608;49.486;9.640;2023-05-10T01:46:24;1.48;;;0.80;;
57778;SDS011;43608;49.486;9.640;2023-05-10T01:47:05;0.80;;;0.80;;
57778;SDS011;43608;49.486;9.640;2023-05-10T01:47:40;1.05;;;1.05;;
57778;SDS011;43608;49.486;9.640;2023-05-10T01:48:24;0.93;;;0.93;;
57778;SDS011;43608;49.486;9.640;2023-05-10T01:48:57;1.55;;;1.05;;
57778;SDS011;43608;49.486;9.640;2023-05-10T01:49:31;1.55;;;0.90;;
57778;SDS011;43608;49.486;9.640;2023-05-10T01:50:09;0.93;;;0.93;;
57778;SDS011;43608;49.486;9.640;2023-05-10T01:50:45;1.60;;;1.00;;
57778;SDS011;43608;49.486;9.640;2023-05-10T01:51:19;1.50;;;1.10;;
57778;SDS011;43608;49.486;9.640;2023-05-10T01:51:53;1.08;;;1.00;;
57778;SDS011;43608;49.486;9.640;2023-05-10T01:52:30;1.00;;;1.00;;
57778;SDS011;43608;49.486;9.640;2023-05-10T01:53:06;2.08;;;1.25;;
57778;SDS011;43608;49.486;9.640;2023-05-10T01:53:38;0.50;;;0.50;;
57778;SDS011;43608;49.486;9.640;2023-05-10T01:54:10;0.80;;;0.80;;
57778;SDS011;43608;49.486;9.640;2023-05-10T01:54:44;1.08;;;1.08;;
57778;SDS011;43608;49.486;9.640;2023-05-10T01:55:21;0.88;;;0.85;;
57778;SDS011;43608;49.486;9.640;2023-05-10T01:55:55;0.80;;;0.80;;
57778;SDS011;43608;49.486;9.640;2023-05-10T01:56:27;0.80;;;0.80;;
57778;SDS011;43608;49.486;9.640;2023-05-10T01:57:02;0.90;;;0.90;;
57778;SDS011;43608;49.486;9.640;2023-05-10T01:57:35;0.90;;;0.90;;
57778;SDS011;43608;49.486;9.640;2023-05-10T01:58:13;1.08;;;1.08;;
57778;SDS011;43608;49.486;9.640;2023-05-10T01:58:45;1.00;;;0.90;;
57778;SDS011;43608;49.486;9.640;2023-05-10T01:59:18;0.88;;;0.88;;
57778;SDS011;43608;49.486;9.640;2023-05-10T01:59:50;0.95;;;0.95;;
57778;SDS011;43608;49.486;9.640;2023-05-10T02:00:22;0.98;;;0.98;;
57778;SDS011;43608;49.486;9.640;2023-05-10T02:00:54;0.95;;;0.95;;
57778;SDS011;43608;49.486;9.640;2023-05-10T02:01:25;1.02;;;1.02;;
57778;SDS011;43608;49.486;9.640;2023-05-10T02:01:57;2.38;;;0.95;;
57778;SDS011;43608;49.486;9.640;2023-05-10T02:02:33;0.80;;;0.80;;
57778;SDS011;43608;49.486;9.640;2023-05-10T02:03:06;1.00;;;1.00;;
57778;SDS011;43608;49.486;9.640;2023-05-10T02:03:39;0.80;;;0.80;;
57778;SDS011;43608;49.486;9.640;2023-05-10T02:04:13;1.10;;;1.10;;
57778;SDS011;43608;49.486;9.640;2023-05-10T02:04:47;1.00;;;1.00;;
57778;SDS011;43608;49.486;9.640;2023-05-10T02:05:20;0.95;;;0.95;;
57778;SDS011;43608;49.486;9.640;2023-05-10T02:05:53;1.00;;;1.00;;
57778;SDS011;43608;49.486;9.640;2023-05-10T02:06:25;0.70;;;0.70;;
57778;SDS011;43608;49.486;9.640;2023-05-10T02:06:57;0.90;;;0.90;;
57778;SDS011;43608;49.486;9.640;2023-05-10T02:07:28;0.85;;;0.85;;
57778;SDS011;43608;49.486;9.640;2023-05-10T02:07:59;1.10;;;1.10;;
57778;SDS011;43608;49.486;9.640;2023-05-10T02:08:31;1.58;;;1.20;;
57778;SDS011;43608;49.486;9.640;2023-05-10T02:09:06;0.70;;;0.70;;
57778;SDS011;43608;49.486;9.640;2023-05-10T02:09:39;0.88;;;0.88;;
57778;SDS011;43608;49.486;9.640;2023-05-10T02:10:10;0.90;;;0.90;;
57778;SDS011;43608;49.486;9.640;2023-05-10T02:10:43;0.88;;;0.88;;
57778;SDS011;43608;49.486;9.640;2023-05-10T02:11:17;1.10;;;1.10;;
57778;SDS011;43608;49.486;9.640;2023-05-10T02:11:48;0.90;;;0.90;;
57778;SDS011;43608;49.486;9.640;2023-05-10T02:12:20;0.80;;;0.80;;
57778;SDS011;43608;49.486;9.640;2023-05-10T02:12:52;1.00;;;0.98;;
57778;SDS011;43608;49.486;9.640;2023-05-10T02:13:25;0.80;;;0.80;;
57778;SDS011;43608;49.486;9.640;2023-05-10T02:13:57;0.95;;;0.95;;
57778;SDS011;43608;49.486;9.640;2023-05-10T02:14:28;0.73;;;0.73;;
57778;SDS011;43608;49.486;9.640;2023-05-10T02:15:02;1.00;;;1.00;;
57778;SDS011;43608;49.486;9.640;2023-05-10T02:15:35;0.82;;;0.82;;
57778;SDS011;43608;49.486;9.640;2023-05-10T02:16:07;1.10;;;1.10;;
57778;SDS011;43608;49.486;9.640;2023-05-10T02:16:37;1.00;;;1.00;;
57778;SDS011;43608;49.486;9.640;2023-05-10T02:17:09;1.35;;;0.88;;
57778;SDS011;43608;49.486;9.640;2023-05-10T02:17:41;1.10;;;1.10;;
57778;SDS011;43608;49.486;9.640;2023-05-10T02:18:12;0.90;;;0.90;;
57778;SDS011;43608;49.486;9.640;2023-05-10T02:18:45;1.10;;;1.10;;
57778;SDS011;43608;49.486;9.640;2023-05-10T02:19:17;1.05;;;1.05;;
57778;SDS011;43608;49.486;9.640;2023-05-10T02:19:52;1.00;;;1.00;;
57778;SDS011;43608;49.486;9.640;2023-05-10T02:20:24;1.00;;;1.00;;
57778;SDS011;43608;49.486;9.640;2023-05-10T02:20:56;1.20;;;1.10;;
57778;SDS011;43608;49.486;9.640;2023-05-10T02:21:28;1.10;;;1.10;;
57778;SDS011;43608;49.486;9.640;2023-05-10T02:22:00;1.08;;;1.08;;
57778;SDS011;43608;49.486;9.640;2023-05-10T02:22:33;1.00;;;1.00;;
57778;SDS011;43608;49.486;9.640;2023-05-10T02:23:05;1.10;;;1.08;;
57778;SDS011;43608;49.486;9.640;2023-05-10T02:23:37;1.10;;;1.00;;
57778;SDS011;43608;49.486;9.640;2023-05-10T02:24:09;0.90;;;0.90;;
57778;SDS011;43608;49.486;9.640;2023-05-10T02:24:41;0.90;;;0.90;;
57778;SDS011;43608;49.486;9.640;2023-05-10T02:25:13;0.95;;;0.90;;
57778;SDS011;43608;49.486;9.640;2023-05-10T02:25:44;0.90;;;0.90;;
57778;SDS011;43608;49.486;9.640;2023-05-10T02:26:16;0.95;;;0.95;;
57778;SDS011;43608;49.486;9.640;2023-05-10T02:26:48;1.20;;;1.10;;
57778;SDS011;43608;49.486;9.640;2023-05-10T02:27:20;1.20;;;1.10;;
57778;SDS011;43608;49.486;9.640;2023-05-10T02:27:55;1.27;;;1.20;;
57778;SDS011;43608;49.486;9.640;2023-05-10T02:28:27;1.08;;;1.08;;
57778;SDS011;43608;49.486;9.640;2023-05-10T02:29:02;1.40;;;1.30;;
57778;SDS011;43608;49.486;9.640;2023-05-10T02:29:35;1.40;;;1.30;;
57778;SDS011;43608;49.486;9.640;2023-05-10T02:30:07;1.30;;;1.30;;
57778;SDS011;43608;49.486;9.640;2023-05-10T02:30:40;1.25;;;1.13;;
57778;SDS011;43608;49.486;9.640;2023-05-10T02:31:11;1.30;;;1.30;;
57778;SDS011;43608;49.486;9.640;2023-05-10T02:31:42;1.23;;;1.23;;
57778;SDS011;43608;49.486;9.640;2023-05-10T02:32:14;1.20;;;1.20;;
57778;SDS011;43608;49.486;9.640;2023-05-10T02:32:46;1.40;;;1.30;;
57778;SDS011;43608;49.486;9.640;2023-05-10T02:33:19;1.23;;;1.23;;
57778;SDS011;43608;49.486;9.640;2023-05-10T02:33:51;1.48;;;1.40;;
57778;SDS011;43608;49.486;9.640;2023-05-10T02:34:23;1.40;;;1.30;;
57778;SDS011;43608;49.486;9.640;2023-05-10T02:34:56;1.10;;;1.10;;
57778;SDS011;43608;49.486;9.640;2023-05-10T02:35:31;1.20;;;1.20;;
57778;SDS011;43608;49.486;9.640;2023-05-10T02:36:03;1.33;;;1.23;;
57778;SDS011;43608;49.486;9.640;2023-05-10T02:36:35;1.35;;;1.25;;
57778;SDS011;43608;49.486;9.640;2023-05-10T02:37:07;1.13;;;1.13;;
57778;SDS011;43608;49.486;9.640;2023-05-10T02:37:39;1.42;;;1.30;;
57778;SDS011;43608;49.486;9.640;2023-05-10T02:38:11;1.20;;;1.20;;
57778;SDS011;43608;49.486;9.640;2023-05-10T02:38:44;1.48;;;1.30;;
57778;SDS011;43608;49.486;9.640;2023-05-10T02:39:15;1.38;;;1.20;;
57778;SDS011;43608;49.486;9.640;2023-05-10T02:39:50;1.20;;;1.20;;
57778;SDS011;43608;49.486;9.640;2023-05-10T02:40:23;1.20;;;1.20;;
57778;SDS011;43608;49.486;9.640;2023-05-10T02:40:56;1.10;;;1.10;;
57778;SDS011;43608;49.486;9.640;2023-05-10T02:41:29;1.05;;;1.05;;
57778;SDS011;43608;49.486;9.640;2023-05-10T02:42:02;1.20;;;1.17;;
57778;SDS011;43608;49.486;9.640;2023-05-10T02:42:35;1.77;;;1.30;;
57778;SDS011;43608;49.486;9.640;2023-05-10T02:43:07;1.10;;;1.10;;
57778;SDS011;43608;49.486;9.640;2023-05-10T02:43:42;1.08;;;1.08;;
57778;SDS011;43608;49.486;9.640;2023-05-10T02:44:14;1.00;;;1.00;;
57778;SDS011;43608;49.486;9.640;2023-05-10T02:44:48;1.40;;;1.30;;
57778;SDS011;43608;49.486;9.640;2023-05-10T02:45:21;1.27;;;1.20;;
57778;SDS011;43608;49.486;9.640;2023-05-10T02:45:56;1.20;;;1.20;;
57778;SDS011;43608;49.486;9.640;2023-05-10T02:46:27;1.40;;;1.30;;
57778;SDS011;43608;49.486;9.640;2023-05-10T02:46:57;1.20;;;1.20;;
57778;SDS011;43608;49.486;9.640;2023-05-10T02:47:28;1.13;;;1.08;;
57778;SDS011;43608;49.486;9.640;2023-05-10T02:47:59;1.17;;;1.10;;
57778;SDS011;43608;49.486;9.640;2023-05-10T02:48:30;1.27;;;1.27;;
57778;SDS011;43608;49.486;9.640;2023-05-10T02:49:01;1.30;;;1.20;;
57778;SDS011;43608;49.486;9.640;2023-05-10T02:49:31;1.17;;;1.17;;
57778;SDS011;43608;49.486;9.640;2023-05-10T02:50:02;1.20;;;1.20;;
57778;SDS011;43608;49.486;9.640;2023-05-10T02:50:33;1.20;;;1.20;;
57778;SDS011;43608;49.486;9.640;2023-05-10T02:51:07;1.23;;;1.23;;
57778;SDS011;43608;49.486;9.640;2023-05-10T02:51:40;1.38;;;1.30;;
57778;SDS011;43608;49.486;9.640;2023-05-10T02:52:15;1.50;;;1.40;;
57778;SDS011;43608;49.486;9.640;2023-05-10T02:52:52;1.23;;;1.20;;
57778;SDS011;43608;49.486;9.640;2023-05-10T02:53:35;1.55;;;1.27;;
57778;SDS011;43608;49.486;9.640;2023-05-10T02:54:12;1.40;;;1.30;;
57778;SDS011;43608;49.486;9.640;2023-05-10T02:54:49;1.17;;;1.17;;
57778;SDS011;43608;49.486;9.640;2023-05-10T02:55:22;1.65;;;1.30;;
57778;SDS011;43608;49.486;9.640;2023-05-10T02:55:58;1.40;;;1.30;;
57778;SDS011;43608;49.486;9.640;2023-05-10T02:56:31;1.40;;;1.30;;
57778;SDS011;43608;49.486;9.640;2023-05-10T02:57:04;1.40;;;1.30;;
57778;SDS011;43608;49.486;9.640;2023-05-10T02:57:38;1.40;;;1.30;;
57778;SDS011;43608;49.486;9.640;2023-05-10T02:58:13;1.30;;;1.30;;
57778;SDS011;43608;49.486;9.640;2023-05-10T02:58:43;1.20;;;1.20;;
57778;SDS011;43608;49.486;9.640;2023-05-10T02:59:13;1.40;;;1.30;;
57778;SDS011;43608;49.486;9.640;2023-05-10T02:59:47;1.25;;;1.25;;
57778;SDS011;43608;49.486;9.640;2023-05-10T03:00:17;1.30;;;1.17;;
57778;SDS011;43608;49.486;9.640;2023-05-10T03:00:48;1.20;;;1.20;;
57778;SDS011;43608;49.486;9.640;2023-05-10T03:01:18;1.08;;;1.08;;
57778;SDS011;43608;49.486;9.640;2023-05-10T03:01:48;1.30;;;1.20;;
57778;SDS011;43608;49.486;9.640;2023-05-10T03:02:20;1.10;;;1.10;;
57778;SDS011;43608;49.486;9.640;2023-05-10T03:02:51;1.33;;;1.17;;
57778;SDS011;43608;49.486;9.640;2023-05-10T03:03:21;1.17;;;1.10;;
57778;SDS011;43608;49.486;9.640;2023-05-10T03:03:52;1.10;;;1.10;;
57778;SDS011;43608;49.486;9.640;2023-05-10T03:04:22;1.33;;;1.30;;
57778;SDS011;43608;49.486;9.640;2023-05-10T03:04:52;1.33;;;1.20;;
57778;SDS011;43608;49.486;9.640;2023-05-10T03:05:23;1.10;;;1.10;;
57778;SDS011;43608;49.486;9.640;2023-05-10T03:05:53;1.27;;;1.20;;
57778;SDS011;43608;49.486;9.640;2023-05-10T03:06:25;1.20;;;1.20;;
57778;SDS011;43608;49.486;9.640;2023-05-10T03:06:56;1.10;;;1.10;;
57778;SDS011;43608;49.486;9.640;2023-05-10T03:07:26;1.20;;;1.20;;
57778;SDS011;43608;49.486;9.640;2023-05-10T03:07:57;1.20;;;1.20;;
57778;SDS011;43608;49.486;9.640;2023-05-10T03:08:27;1.30;;;1.30;;
57778;SDS011;43608;49.486;9.640;2023-05-10T03:09:02;1.20;;;1.20;;
57778;SDS011;43608;49.486;9.640;2023-05-10T03:09:33;1.38;;;1.27;;
57778;SDS011;43608;49.486;9.640;2023-05-10T03:10:04;1.40;;;1.30;;
57778;SDS011;43608;49.486;9.640;2023-05-10T03:10:37;1.20;;;1.20;;
57778;SDS011;43608;49.486;9.640;2023-05-10T03:11:56;1.48;;;1.38;;
57778;SDS011;43608;49.486;9.640;2023-05-10T03:13:06;1.25;;;1.25;;
57778;SDS011;43608;49.486;9.640;2023-05-10T03:14:10;1.23;;;1.13;;
57778;SDS011;43608;49.486;9.640;2023-05-10T03:14:45;1.38;;;1.30;;
57778;SDS011;43608;49.486;9.640;2023-05-10T03:16:06;1.40;;;1.40;;
57778;SDS011;43608;49.486;9.640;2023-05-10T03:16:45;1.10;;;1.10;;
57778;SDS011;43608;49.486;9.640;2023-05-10T03:17:30;1.40;;;1.30;;
57778;SDS011;43608;49.486;9.640;2023-05-10T03:18:15;1.10;;;1.10;;
57778;SDS011;43608;49.486;9.640;2023-05-10T03:19:45;1.17;;;1.17;;
57778;SDS011;43608;49.486;9.640;2023-05-10T03:20:12;1.30;;;1.20;;
57778;SDS011;43608;49.486;9.640;2023-05-10T03:20:54;1.55;;;1.45;;
57778;SDS011;43608;49.486;9.640;2023-05-10T03:21:31;1.55;;;1.40;;
57778;SDS011;43608;49.486;9.640;2023-05-10T03:22:03;1.45;;;1.35;;
57778;SDS011;43608;49.486;9.640;2023-05-10T03:22:38;1.50;;;1.40;;
57778;SDS011;43608;49.486;9.640;2023-05-10T03:24:07;1.30;;;1.27;;
57778;SDS011;43608;49.486;9.640;2023-05-10T03:24:39;1.40;;;1.30;;
57778;SDS011;43608;49.486;9.640;2023-05-10T03:25:11;1.60;;;1.50;;
57778;SDS011;43608;49.486;9.640;2023-05-10T03:25:42;1.60;;;1.50;;
57778;SDS011;43608;49.486;9.640;2023-05-10T03:26:17;2.22;;;1.45;;
57778;SDS011;43608;49.486;9.640;2023-05-10T03:26:54;1.60;;;1.50;;
57778;SDS011;43608;49.486;9.640;2023-05-10T03:27:26;2.20;;;1.60;;
57778;SDS011;43608;49.486;9.640;2023-05-10T03:27:58;1.70;;;1.60;;
57778;SDS011;43608;49.486;9.640;2023-05-10T03:28:31;1.67;;;1.58;;
57778;SDS011;43608;49.486;9.640;2023-05-10T03:29:04;1.92;;;1.63;;
57778;SDS011;43608;49.486;9.640;2023-05-10T03:29:35;1.65;;;1.55;;
57778;SDS011;43608;49.486;9.640;2023-05-10T03:30:07;1.73;;;1.60;;
57778;SDS011;43608;49.486;9.640;2023-05-10T03:30:40;1.98;;;1.55;;
57778;SDS011;43608;49.486;9.640;2023-05-10T03:31:12;1.60;;;1.50;;
57778;SDS011;43608;49.486;9.640;2023-05-10T03:31:43;1.60;;;1.50;;
57778;SDS011;43608;49.486;9.640;2023-05-10T03:32:13;1.48;;;1.38;;
57778;SDS011;43608;49.486;9.640;2023-05-10T03:32:44;1.65;;;1.40;;
57778;SDS011;43608;49.486;9.640;2023-05-10T03:33:17;1.95;;;1.52;;
57778;SDS011;43608;49.486;9.640;2023-05-10T03:33:48;1.60;;;1.50;;
57778;SDS011;43608;49.486;9.640;2023-05-10T03:34:23;2.78;;;1.60;;
57778;SDS011;43608;49.486;9.640;2023-05-10T03:34:54;1.70;;;1.58;;